createdAt,value
2023-02-20T00:14:49.254Z,3.22
2023-02-20T00:36:33.429Z,3.61
2023-02-20T00:58:19.165Z,5.95
2023-02-20T01:20:04.961Z,4.17
2023-02-20T01:41:55.638Z,5.06
2023-02-20T02:03:46.340Z,5.57
2023-02-20T02:25:48.342Z,5.41
2023-02-20T02:47:43.212Z,5.18
2023-02-20T03:09:33.476Z,4.86
2023-02-20T03:31:22.625Z,4.41
2023-02-20T03:53:08.570Z,4.47
2023-02-20T04:14:58.180Z,4.48
2023-02-20T04:36:44.468Z,4.48
2023-02-20T04:58:30.400Z,4.73
2023-02-20T05:20:43.460Z,5.22
2023-02-20T05:42:29.301Z,4.82
2023-02-20T06:04:15.539Z,6.07
2023-02-20T06:26:01.530Z,4.86
2023-02-20T06:47:47.201Z,5.11
2023-02-20T07:09:32.872Z,5.56
2023-02-20T07:31:18.991Z,7.71
2023-02-20T07:53:04.752Z,7.53
2023-02-20T08:14:52.668Z,8.22
2023-02-20T08:36:38.384Z,9.18
2023-02-20T09:01:50.577Z,8.79
2023-02-20T09:23:37.572Z,9.91
2023-02-20T09:45:27.574Z,10.33
2023-02-20T10:07:21.412Z,9.57
2023-02-20T10:29:19.138Z,8.87
2023-02-20T10:51:13.278Z,10.34
2023-02-20T11:13:00.926Z,12.05
2023-02-20T11:34:47.343Z,11.32
2023-02-20T11:56:33.057Z,11.68
2023-02-20T12:18:41.683Z,11.90
2023-02-20T12:40:48.186Z,11.99
2023-02-20T13:02:43.128Z,12.08
2023-02-20T13:24:32.788Z,12.13
2023-02-20T13:46:25.715Z,12.07
2023-02-20T14:08:19.970Z,12.56
2023-02-20T14:30:14.066Z,12.89
2023-02-20T14:52:17.022Z,12.69
2023-02-20T15:14:04.057Z,12.32
2023-02-20T15:35:52.126Z,12.10
2023-02-20T15:57:37.741Z,12.00
2023-02-20T16:19:36.647Z,11.98
2023-02-20T16:41:28.588Z,11.97
2023-02-20T17:03:14.531Z,11.79
2023-02-20T17:25:01.204Z,12.02
2023-02-20T17:46:49.183Z,12.38
2023-02-20T18:08:35.100Z,11.58
2023-02-20T18:30:21.807Z,12.81
2023-02-20T18:52:08.120Z,12.36
2023-02-20T19:13:53.772Z,12.48
2023-02-20T19:35:39.559Z,12.40
2023-02-20T19:57:25.613Z,12.27
2023-02-20T20:19:12.303Z,12.27
2023-02-20T20:40:58.107Z,11.85
2023-02-20T21:02:44.115Z,12.07
2023-02-20T21:24:29.862Z,11.58
2023-02-20T21:46:15.583Z,11.32
2023-02-20T22:08:18.848Z,11.18
2023-02-20T22:30:22.577Z,11.54
2023-02-20T22:52:26.322Z,11.40
2023-02-20T23:14:29.639Z,11.42
2023-02-20T23:36:32.952Z,11.59
2023-02-20T23:58:36.332Z,12.59
